createdAt,value
2018-05-08T00:01:55.382Z,100936.56
2018-05-08T00:04:21.340Z,100940.12
2018-05-08T00:06:47.325Z,100932.95
2018-05-08T00:09:13.276Z,100937.75
2018-05-08T00:11:39.241Z,100935.69
2018-05-08T00:14:05.192Z,100930.91
2018-05-08T00:16:31.210Z,100928.27
2018-05-08T00:18:57.176Z,100924.44
2018-05-08T00:21:23.145Z,100922.26
2018-05-08T00:23:49.096Z,100920.33
2018-05-08T00:26:15.061Z,100917.19
2018-05-08T00:28:41.037Z,100916.16
2018-05-08T00:31:06.965Z,100920.68
2018-05-08T00:33:32.947Z,100920.77
2018-05-08T00:35:58.920Z,100920.81
2018-05-08T00:38:24.875Z,100912.94
2018-05-08T00:40:50.824Z,100906.05
2018-05-08T00:43:16.795Z,100901.53
2018-05-08T00:45:42.756Z,100903.67
2018-05-08T00:48:08.703Z,100894.78
2018-05-08T00:50:34.651Z,100894.34
2018-05-08T00:53:00.607Z,100887.69
2018-05-08T00:55:26.577Z,100888.17
2018-05-08T00:57:52.533Z,100884.25
2018-05-08T01:00:18.544Z,100877.87
2018-05-08T01:02:44.466Z,100878.73
2018-05-08T01:05:10.417Z,100873.86
2018-05-08T01:07:36.378Z,100877.52
2018-05-08T01:10:02.324Z,100876.86
2018-05-08T01:12:28.279Z,100875.19
2018-05-08T01:14:54.260Z,100880.75
2018-05-08T01:17:20.218Z,100880.33
2018-05-08T01:19:46.185Z,100881.38
2018-05-08T01:22:12.129Z,100881.47
2018-05-08T01:24:38.079Z,100875.08
2018-05-08T01:27:04.047Z,100879.98
2018-05-08T01:29:29.992Z,100877.09
2018-05-08T01:31:55.970Z,100878.86
2018-05-08T01:34:21.931Z,100881.11
2018-05-08T01:36:47.896Z,100874.89
2018-05-08T01:39:13.854Z,100877.31
2018-05-08T01:41:39.803Z,100871.25
2018-05-08T01:44:05.764Z,100866.92
2018-05-08T01:46:31.733Z,100866.52
2018-05-08T01:48:57.688Z,100862.78
2018-05-08T01:51:27.233Z,100861.72
2018-05-08T01:53:53.190Z,100861.72
2018-05-08T01:56:19.144Z,100856.89
2018-05-08T01:58:45.106Z,100859.31
2018-05-08T02:01:11.090Z,100857.35
2018-05-08T02:03:37.049Z,100851.06
2018-05-08T02:06:03.022Z,100853.06
2018-05-08T02:08:29.000Z,100852.10
2018-05-08T02:10:54.984Z,100834.91
2018-05-08T02:13:20.935Z,100844.63
2018-05-08T02:15:46.901Z,100837.52
2018-05-08T02:18:12.864Z,100838.66
2018-05-08T02:20:38.810Z,100834.59
2018-05-08T02:23:04.811Z,100830.86
2018-05-08T02:25:30.760Z,100829.35
2018-05-08T02:27:56.742Z,100821.59
2018-05-08T02:30:22.714Z,100828.53
2018-05-08T02:32:48.664Z,100824.01
2018-05-08T02:35:14.693Z,100824.47
2018-05-08T02:37:40.648Z,100818.36
2018-05-08T02:40:06.618Z,100827.98
2018-05-08T02:42:32.567Z,100818.13
2018-05-08T02:44:58.532Z,100821.55
2018-05-08T02:47:24.485Z,100818.27
2018-05-08T02:49:50.454Z,100818.32
2018-05-08T02:52:16.400Z,100816.31
2018-05-08T02:54:42.376Z,100819.64
2018-05-08T02:57:08.328Z,100816.94
2018-05-08T02:59:34.287Z,100818.41
2018-05-08T03:02:00.259Z,100812.06
2018-05-08T03:04:26.219Z,100810.66
2018-05-08T03:06:52.189Z,100806.55
2018-05-08T03:09:18.142Z,100802.21
2018-05-08T03:11:44.128Z,100809.42
2018-05-08T03:14:10.082Z,100806.22
2018-05-08T03:16:36.036Z,100810.43
2018-05-08T03:19:02.002Z,100807.73
2018-05-08T03:21:27.959Z,100816.22
2018-05-08T03:23:53.912Z,100813.57
2018-05-08T03:26:19.864Z,100816.40
2018-05-08T03:28:45.852Z,100811.47
2018-05-08T03:31:11.817Z,100810.52
2018-05-08T03:33:37.780Z,100806.22
2018-05-08T03:36:03.724Z,100811.42
2018-05-08T03:38:29.676Z,100811.80
2018-05-08T03:40:55.624Z,100808.92
2018-05-08T03:43:21.576Z,100811.30
2018-05-08T03:45:47.537Z,100810.78
2018-05-08T03:48:13.485Z,100806.64
2018-05-08T03:50:39.475Z,100802.17
2018-05-08T03:53:05.416Z,100803.45
2018-05-08T03:55:31.410Z,100800.20
2018-05-08T03:57:57.368Z,100796.97
2018-05-08T04:00:23.356Z,100797.48
2018-05-08T04:02:49.315Z,100802.67
2018-05-08T04:05:15.300Z,100795.97
2018-05-08T04:07:41.273Z,100797.20
2018-05-08T04:10:07.228Z,100793.55
2018-05-08T04:12:33.210Z,100796.48
2018-05-08T04:14:59.171Z,100792.09
2018-05-08T04:17:25.145Z,100791.50
2018-05-08T04:19:51.104Z,100791.59
2018-05-08T04:22:17.050Z,100786.07
2018-05-08T04:24:42.992Z,100786.26
2018-05-08T04:27:08.953Z,100780.33
2018-05-08T04:29:34.932Z,100775.08
2018-05-08T04:32:00.956Z,100769.48
2018-05-08T04:34:26.909Z,100773.86
2018-05-08T04:36:52.858Z,100775.41
2018-05-08T04:39:18.825Z,100776.64
2018-05-08T04:41:44.776Z,100777.31
2018-05-08T04:44:10.736Z,100774.40
2018-05-08T04:46:36.698Z,100770.94
2018-05-08T04:49:02.641Z,100775.31
2018-05-08T04:51:28.588Z,100772.03
2018-05-08T04:53:54.541Z,100766.73
2018-05-08T04:56:20.531Z,100773.58
2018-05-08T04:58:46.494Z,100767.33
2018-05-08T05:01:12.475Z,100764.91
2018-05-08T05:03:38.457Z,100763.18
2018-05-08T05:06:04.440Z,100763.36
2018-05-08T05:08:30.404Z,100760.77
2018-05-08T05:10:56.390Z,100758.86
2018-05-08T05:13:22.353Z,100765.19
2018-05-08T05:15:48.306Z,100764.33
2018-05-08T05:18:14.284Z,100760.45
2018-05-08T05:20:40.261Z,100761.69
2018-05-08T05:23:06.225Z,100760.95
2018-05-08T05:25:32.196Z,100757.39
2018-05-08T05:27:58.184Z,100755.98
2018-05-08T05:30:24.128Z,100749.31
2018-05-08T05:32:50.129Z,100754.75
2018-05-08T05:35:16.086Z,100750.24
2018-05-08T05:37:42.043Z,100745.69
2018-05-08T05:40:07.985Z,100751.34
2018-05-08T05:42:33.940Z,100753.20
2018-05-08T05:44:59.905Z,100753.52
2018-05-08T05:47:25.889Z,100750.02
2018-05-08T05:49:51.876Z,100755.72
2018-05-08T05:52:17.836Z,100752.19
2018-05-08T05:54:43.781Z,100747.45
2018-05-08T05:57:09.758Z,100744.59
2018-05-08T05:59:35.765Z,100741.30
2018-05-08T06:02:01.801Z,100744.90
2018-05-08T06:04:27.763Z,100739.62
2018-05-08T06:06:53.764Z,100735.83
2018-05-08T06:09:19.736Z,100730.95
2018-05-08T06:11:47.858Z,100728.16
2018-05-08T06:14:13.842Z,100726.25
2018-05-08T06:16:39.844Z,100731.63
2018-05-08T06:19:05.841Z,100728.29
2018-05-08T06:21:32.062Z,100725.14
2018-05-08T06:23:58.016Z,100737.67
2018-05-08T06:26:23.989Z,100727.00
2018-05-08T06:28:49.952Z,100728.06
2018-05-08T06:31:15.940Z,100728.91
2018-05-08T06:33:41.895Z,100728.42
2018-05-08T06:36:07.875Z,100728.36
2018-05-08T06:38:33.847Z,100725.68
2018-05-08T06:40:59.818Z,100726.60
2018-05-08T06:43:25.783Z,100722.31
2018-05-08T06:45:51.741Z,100715.95
2018-05-08T06:48:17.711Z,100718.78
2018-05-08T06:50:43.667Z,100718.92
2018-05-08T06:53:09.638Z,100718.03
2018-05-08T06:55:36.467Z,100717.85
2018-05-08T06:58:02.443Z,100715.20
2018-05-08T07:00:28.397Z,100716.87
2018-05-08T07:02:54.336Z,100709.51
2018-05-08T07:05:20.307Z,100717.85
2018-05-08T07:07:46.285Z,100719.17
2018-05-08T07:10:12.246Z,100717.20
2018-05-08T07:12:38.227Z,100716.80
2018-05-08T07:15:04.181Z,100719.89
2018-05-08T07:17:30.145Z,100713.51
2018-05-08T07:19:56.117Z,100710.72
2018-05-08T07:22:22.069Z,100708.75
2018-05-08T07:24:48.022Z,100709.22
2018-05-08T07:27:14.032Z,100710.25
2018-05-08T07:29:39.982Z,100705.70
2018-05-08T07:32:05.949Z,100700.49
2018-05-08T07:34:32.005Z,100700.23
2018-05-08T07:36:57.930Z,100700.41
2018-05-08T07:39:23.908Z,100703.05
2018-05-08T07:41:49.867Z,100696.00
2018-05-08T07:44:15.836Z,100700.88
2018-05-08T07:46:41.785Z,100703.05
2018-05-08T07:49:07.789Z,100699.31
2018-05-08T07:51:33.794Z,100700.73
2018-05-08T07:53:59.747Z,100701.73
2018-05-08T07:56:25.717Z,100703.20
2018-05-08T07:58:51.672Z,100699.91
2018-05-08T08:01:17.619Z,100692.11
2018-05-08T08:03:43.597Z,100697.67
2018-05-08T08:06:09.574Z,100694.34
2018-05-08T08:08:35.530Z,100699.14
2018-05-08T08:11:01.588Z,100699.38
2018-05-08T08:13:27.556Z,100693.67
2018-05-08T08:15:53.543Z,100690.23
2018-05-08T08:18:19.532Z,100687.00
2018-05-08T08:20:45.479Z,100684.94
2018-05-08T08:23:11.451Z,100681.39
2018-05-08T08:25:37.405Z,100677.53
2018-05-08T08:28:03.384Z,100677.30
2018-05-08T08:30:29.347Z,100680.63
2018-05-08T08:32:55.307Z,100675.83
2018-05-08T08:35:21.267Z,100674.66
2018-05-08T08:37:47.222Z,100665.80
2018-05-08T08:40:13.216Z,100666.84
2018-05-08T08:42:39.164Z,100671.45
2018-05-08T08:45:05.152Z,100664.92
2018-05-08T08:47:31.164Z,100663.25
2018-05-08T08:49:57.088Z,100662.55
2018-05-08T08:52:23.094Z,100656.99
2018-05-08T08:54:49.006Z,100659.28
2018-05-08T08:57:15.076Z,100663.55
2018-05-08T08:59:41.020Z,100660.11
2018-05-08T09:02:06.998Z,100654.44
2018-05-08T09:04:32.939Z,100654.11
2018-05-08T09:06:58.896Z,100657.34
2018-05-08T09:09:24.853Z,100650.61
2018-05-08T09:11:50.800Z,100649.11
2018-05-08T09:14:16.758Z,100644.70
2018-05-08T09:16:42.721Z,100641.12
2018-05-08T09:19:08.680Z,100642.80
2018-05-08T09:21:36.734Z,100637.23
2018-05-08T09:24:02.649Z,100634.80
2018-05-08T09:26:28.617Z,100632.42
2018-05-08T09:28:54.591Z,100631.19
2018-05-08T09:31:20.532Z,100626.06
2018-05-08T09:33:46.496Z,100617.88
2018-05-08T09:36:12.467Z,100618.95
2018-05-08T09:38:38.435Z,100618.98
2018-05-08T09:41:04.483Z,100610.05
2018-05-08T09:43:30.368Z,100607.44
2018-05-08T09:45:56.342Z,100600.38
2018-05-08T09:48:22.288Z,100599.20
2018-05-08T09:50:48.237Z,100593.56
2018-05-08T09:53:14.186Z,100591.77
2018-05-08T09:55:40.141Z,100581.03
2018-05-08T09:58:06.104Z,100581.02
2018-05-08T10:00:32.070Z,100572.26
2018-05-08T10:02:58.045Z,100575.39
2018-05-08T10:05:24.000Z,100567.11
2018-05-08T10:07:49.950Z,100570.05
2018-05-08T10:10:15.897Z,100566.08
2018-05-08T10:12:41.864Z,100563.97
2018-05-08T10:15:07.849Z,100557.20
2018-05-08T10:17:33.833Z,100558.72
2018-05-08T10:19:59.784Z,100555.81
2018-05-08T10:22:25.779Z,100554.48
2018-05-08T10:24:51.742Z,100550.59
2018-05-08T10:27:17.698Z,100544.06
2018-05-08T10:29:43.643Z,100537.97
2018-05-08T10:32:09.604Z,100531.36
2018-05-08T10:34:35.598Z,100528.78
2018-05-08T10:37:01.573Z,100525.20
2018-05-08T10:39:27.545Z,100524.32
2018-05-08T10:41:53.500Z,100526.49
2018-05-08T10:44:19.485Z,100527.12
2018-05-08T10:46:45.439Z,100522.31
2018-05-08T10:49:11.393Z,100519.86
2018-05-08T10:51:37.379Z,100515.80
2018-05-08T10:54:03.330Z,100515.10
2018-05-08T10:56:29.297Z,100514.66
2018-05-08T10:58:55.282Z,100507.20
2018-05-08T11:01:21.234Z,100505.05
2018-05-08T11:03:47.209Z,100503.73
2018-05-08T11:06:13.166Z,100491.81
2018-05-08T11:08:39.144Z,100501.34
2018-05-08T11:11:05.137Z,100492.40
2018-05-08T11:13:31.104Z,100490.50
2018-05-08T11:15:57.077Z,100491.58
2018-05-08T11:18:23.029Z,100484.56
2018-05-08T11:20:49.032Z,100473.79
2018-05-08T11:23:14.982Z,100482.98
2018-05-08T11:25:40.943Z,100478.35
2018-05-08T11:28:06.928Z,100488.19
2018-05-08T11:30:32.888Z,100479.27
2018-05-08T11:32:58.856Z,100476.94
2018-05-08T11:35:24.803Z,100468.57
2018-05-08T11:37:50.782Z,100464.79
2018-05-08T11:40:16.766Z,100460.16
2018-05-08T11:42:42.736Z,100460.58
2018-05-08T11:45:08.684Z,100462.91
2018-05-08T11:47:34.678Z,100459.67
2018-05-08T11:50:01.707Z,100445.61
2018-05-08T11:52:27.646Z,100454.36
2018-05-08T11:54:53.588Z,100453.15
2018-05-08T11:57:19.552Z,100448.01
2018-05-08T11:59:45.509Z,100437.52
2018-05-08T12:02:11.468Z,100433.53
2018-05-08T12:04:37.450Z,100423.15
2018-05-08T12:07:03.416Z,100431.81
2018-05-08T12:09:29.390Z,100432.55
2018-05-08T12:11:55.370Z,100427.67
2018-05-08T12:14:21.336Z,100425.02
2018-05-08T12:16:47.320Z,100424.30
2018-05-08T12:19:13.285Z,100410.22
2018-05-08T12:21:39.264Z,100412.55
2018-05-08T12:24:05.215Z,100410.33
2018-05-08T12:26:31.223Z,100409.50
2018-05-08T12:28:57.234Z,100412.47
2018-05-08T12:31:23.189Z,100399.73
2018-05-08T12:33:49.140Z,100398.02
2018-05-08T12:36:15.149Z,100400.83
2018-05-08T12:38:41.112Z,100402.06
2018-05-08T12:41:07.099Z,100389.16
2018-05-08T12:43:33.087Z,100393.72
2018-05-08T12:45:59.057Z,100397.59
2018-05-08T12:48:25.010Z,100391.65
2018-05-08T12:50:51.988Z,100389.41
2018-05-08T12:53:17.953Z,100387.98
2018-05-08T12:55:43.908Z,100383.38
2018-05-08T12:58:09.869Z,100386.20
2018-05-08T13:00:35.857Z,100386.85
2018-05-08T13:03:01.820Z,100384.03
2018-05-08T13:05:27.814Z,100378.58
2018-05-08T13:07:53.771Z,100370.95
2018-05-08T13:10:19.759Z,100373.78
2018-05-08T13:12:45.713Z,100371.89
2018-05-08T13:15:11.679Z,100372.97
2018-05-08T13:17:37.663Z,100365.01
2018-05-08T13:20:03.618Z,100365.61
2018-05-08T13:22:29.594Z,100363.62
2018-05-08T13:24:55.598Z,100358.33
2018-05-08T13:27:23.592Z,100354.34
2018-05-08T13:29:49.566Z,100356.25
2018-05-08T13:32:15.543Z,100347.83
2018-05-08T13:34:41.515Z,100344.10
2018-05-08T13:37:07.469Z,100347.33
2018-05-08T13:39:33.455Z,100349.96
2018-05-08T13:41:59.463Z,100342.71
2018-05-08T13:44:25.401Z,100338.23
2018-05-08T13:46:51.444Z,100339.23
2018-05-08T13:49:17.403Z,100332.29
2018-05-08T13:51:43.368Z,100326.60
2018-05-08T13:54:09.372Z,100329.16
2018-05-08T13:56:35.327Z,100330.07
2018-05-08T14:01:35.756Z,100326.11
2018-05-08T14:04:02.795Z,100327.34
2018-05-08T14:06:28.733Z,100317.07
2018-05-08T14:08:54.720Z,100315.75
2018-05-08T14:11:20.684Z,100314.75
2018-05-08T14:13:46.641Z,100316.31
2018-05-08T14:16:12.594Z,100313.85
2018-05-08T14:18:40.620Z,100311.03
2018-05-08T14:21:06.568Z,100308.23
2018-05-08T14:23:32.513Z,100305.08
2018-05-08T14:25:58.468Z,100305.02
2018-05-08T14:28:24.425Z,100298.21
2018-05-08T14:30:50.433Z,100304.83
2018-05-08T14:33:16.402Z,100294.69
2018-05-08T14:35:42.374Z,100289.20
2018-05-08T14:38:08.342Z,100292.52
2018-05-08T14:40:34.288Z,100292.27
2018-05-08T14:43:00.249Z,100294.00
2018-05-08T14:45:26.222Z,100290.03
2018-05-08T14:47:52.262Z,100286.70
2018-05-08T14:50:18.208Z,100282.67
2018-05-08T14:52:44.259Z,100277.44
2018-05-08T14:55:10.251Z,100280.27
2018-05-08T14:57:36.209Z,100280.61
2018-05-08T15:00:02.225Z,100283.07
2018-05-08T15:02:28.199Z,100276.61
2018-05-08T15:04:54.148Z,100270.25
2018-05-08T15:07:20.114Z,100269.12
2018-05-08T15:09:46.084Z,100274.41
2018-05-08T15:12:12.055Z,100272.74
2018-05-08T15:14:38.012Z,100269.18
2018-05-08T15:17:04.003Z,100276.45
2018-05-08T15:19:29.976Z,100267.70
2018-05-08T15:21:55.967Z,100264.08
2018-05-08T15:24:21.945Z,100260.02
2018-05-08T15:26:47.921Z,100254.72
2018-05-08T15:29:13.983Z,100252.30
2018-05-08T15:31:39.860Z,100246.12
2018-05-08T15:34:05.885Z,100246.12
2018-05-08T15:36:31.833Z,100245.41
2018-05-08T15:38:57.818Z,100240.23
2018-05-08T15:41:23.838Z,100241.24
2018-05-08T15:43:49.800Z,100243.01
2018-05-08T15:46:15.773Z,100242.00
2018-05-08T15:48:45.437Z,100238.19
2018-05-08T15:51:11.432Z,100239.10
2018-05-08T15:53:37.380Z,100232.90
2018-05-08T15:56:03.345Z,100231.42
2018-05-08T15:58:29.417Z,100230.44
2018-05-08T16:00:55.382Z,100230.76
2018-05-08T16:03:22.433Z,100231.92
2018-05-08T16:05:48.424Z,100230.47
2018-05-08T16:08:14.377Z,100223.64
2018-05-08T16:10:40.340Z,100229.34
2018-05-08T16:13:06.488Z,100221.81
2018-05-08T16:15:32.435Z,100231.98
2018-05-08T16:17:58.420Z,100226.66
2018-05-08T16:20:24.384Z,100222.12
2018-05-08T16:22:50.368Z,100223.38
2018-05-08T16:25:16.339Z,100226.03
2018-05-08T16:27:42.289Z,100223.20
2018-05-08T16:30:08.346Z,100225.27
2018-05-08T16:32:34.207Z,100223.23
2018-05-08T16:35:00.169Z,100229.59
2018-05-08T16:37:26.139Z,100227.01
2018-05-08T16:39:52.118Z,100233.20
2018-05-08T16:42:18.069Z,100221.05
2018-05-08T16:44:44.050Z,100225.38
2018-05-08T16:47:10.020Z,100229.24
2018-05-08T16:49:35.989Z,100227.10
2018-05-08T16:52:02.071Z,100231.16
2018-05-08T16:54:28.055Z,100225.52
2018-05-08T16:56:54.038Z,100230.81
2018-05-08T16:59:19.996Z,100227.61
2018-05-08T17:01:45.970Z,100232.14
2018-05-08T17:04:11.949Z,100224.61
2018-05-08T17:09:10.291Z,100222.72
2018-05-08T17:11:36.253Z,100225.14
2018-05-08T17:14:02.314Z,100226.30
2018-05-08T17:16:28.297Z,100224.93
2018-05-08T17:18:54.270Z,100228.83
2018-05-08T17:21:20.244Z,100218.16
2018-05-08T17:23:50.933Z,100220.13
2018-05-08T17:26:18.919Z,100215.09
2018-05-08T17:28:44.893Z,100218.31
2018-05-08T17:31:10.876Z,100213.37
2018-05-08T17:33:39.035Z,100210.41
2018-05-08T17:36:05.280Z,100211.23
2018-05-08T17:38:31.302Z,100215.09
2018-05-08T17:40:57.268Z,100215.14
2018-05-08T17:43:23.236Z,100210.73
2018-05-08T17:45:49.202Z,100215.25
2018-05-08T17:48:15.174Z,100215.09
2018-05-08T17:50:41.137Z,100215.04
2018-05-08T17:53:07.134Z,100210.98
2018-05-08T17:55:33.126Z,100211.73
2018-05-08T17:57:59.096Z,100216.67
2018-05-08T18:00:25.082Z,100206.66
2018-05-08T18:02:51.036Z,100210.12
2018-05-08T18:05:17.005Z,100208.13
2018-05-08T18:07:42.985Z,100208.39
2018-05-08T18:10:08.944Z,100209.39
2018-05-08T18:12:34.910Z,100209.91
2018-05-08T18:15:00.877Z,100214.28
2018-05-08T18:17:26.880Z,100217.03
2018-05-08T18:19:52.826Z,100218.03
2018-05-08T18:22:18.791Z,100218.60
2018-05-08T18:24:44.786Z,100217.53
2018-05-08T18:27:10.766Z,100220.84
2018-05-08T18:29:36.736Z,100221.66
2018-05-08T18:32:02.702Z,100219.92
2018-05-08T18:34:28.755Z,100222.47
2018-05-08T18:36:54.789Z,100221.41
2018-05-08T18:39:20.803Z,100219.17
2018-05-08T18:41:46.724Z,100216.77
2018-05-08T18:44:12.687Z,100219.73
2018-05-08T18:46:38.636Z,100224.14
2018-05-08T18:49:04.605Z,100228.36
2018-05-08T18:51:30.581Z,100227.45
2018-05-08T18:53:56.561Z,100226.78
2018-05-08T18:56:22.522Z,100222.22
2018-05-08T18:58:48.470Z,100226.95
2018-05-08T19:01:14.457Z,100223.64
2018-05-08T19:03:40.439Z,100227.26
2018-05-08T19:06:06.409Z,100230.91
2018-05-08T19:08:32.369Z,100232.14
2018-05-08T19:10:58.343Z,100231.73
2018-05-08T19:13:24.309Z,100236.05
2018-05-08T19:15:50.268Z,100229.81
2018-05-08T19:18:16.225Z,100242.12
2018-05-08T19:20:42.239Z,100235.60
2018-05-08T19:23:08.201Z,100244.45
2018-05-08T19:25:34.190Z,100243.45
2018-05-08T19:28:00.198Z,100242.47
2018-05-08T19:30:26.162Z,100243.86
2018-05-08T19:32:52.138Z,100246.91
2018-05-08T19:35:18.118Z,100249.24
2018-05-08T19:37:44.085Z,100256.48
2018-05-08T19:40:10.154Z,100257.34
2018-05-08T19:42:36.157Z,100260.10
2018-05-08T19:45:02.155Z,100252.92
2018-05-08T19:47:28.122Z,100257.69
2018-05-08T19:49:54.105Z,100257.44
2018-05-08T19:52:20.192Z,100260.86
2018-05-08T19:54:46.155Z,100259.42
2018-05-08T19:57:12.791Z,100257.69
2018-05-08T19:59:38.799Z,100259.73
2018-05-08T20:02:04.771Z,100260.73
2018-05-08T20:04:30.732Z,100260.48
2018-05-08T20:06:56.692Z,100260.90
2018-05-08T20:09:22.665Z,100260.90
2018-05-08T20:11:48.629Z,100260.90
2018-05-08T20:14:14.602Z,100261.56
2018-05-08T20:16:40.564Z,100265.12
2018-05-08T20:19:06.519Z,100266.95
2018-05-08T20:21:32.477Z,100268.67
2018-05-08T20:23:58.432Z,100268.42
2018-05-08T20:26:24.409Z,100262.56
2018-05-08T20:28:50.383Z,100264.39
2018-05-08T20:31:16.367Z,100267.45
2018-05-08T20:33:44.408Z,100267.16
2018-05-08T20:36:10.520Z,100264.11
2018-05-08T20:38:36.431Z,100268.93
2018-05-08T20:41:02.401Z,100272.39
2018-05-08T20:43:28.381Z,100268.27
2018-05-08T20:45:54.353Z,100271.33
2018-05-08T20:48:20.307Z,100277.44
2018-05-08T20:50:46.363Z,100279.83
2018-05-08T20:53:12.341Z,100276.48
2018-05-08T20:55:38.435Z,100273.88
2018-05-08T20:58:04.342Z,100264.36
2018-05-08T21:00:30.297Z,100265.02
2018-05-08T21:02:56.288Z,100260.96
2018-05-08T21:05:22.248Z,100265.94
2018-05-08T21:07:48.214Z,100269.41
2018-05-08T21:10:14.171Z,100272.55
2018-05-08T21:12:40.801Z,100273.53
2018-05-08T21:15:06.743Z,100268.89
2018-05-08T21:17:32.728Z,100270.91
2018-05-08T21:19:58.688Z,100278.00
2018-05-08T21:22:24.652Z,100274.03
2018-05-08T21:24:50.628Z,100275.36
2018-05-08T21:27:16.577Z,100271.55
2018-05-08T21:29:42.566Z,100271.48
2018-05-08T21:32:08.538Z,100270.06
2018-05-08T21:34:34.720Z,100278.41
2018-05-08T21:37:00.686Z,100273.44
2018-05-08T21:39:26.644Z,100269.72
2018-05-08T21:41:52.640Z,100271.70
2018-05-08T21:44:18.596Z,100268.05
2018-05-08T21:46:44.588Z,100271.86
2018-05-08T21:49:10.552Z,100266.41
2018-05-08T21:51:36.544Z,100277.34
2018-05-08T21:54:02.505Z,100270.13
2018-05-08T21:56:28.469Z,100269.81
2018-05-08T21:58:54.445Z,100271.29
2018-05-08T22:01:20.427Z,100275.27
2018-05-08T22:03:46.429Z,100280.30
2018-05-08T22:06:12.376Z,100281.63
2018-05-08T22:08:38.353Z,100282.48
2018-05-08T22:11:04.375Z,100282.29
2018-05-08T22:13:30.390Z,100280.97
2018-05-08T23:11:24.810Z,100283.67
2018-05-08T23:13:50.778Z,100281.88
2018-05-08T23:16:16.720Z,100279.17
2018-05-08T23:18:42.695Z,100280.55
2018-05-08T23:21:08.658Z,100272.62
2018-05-08T23:23:34.632Z,100279.58
2018-05-08T23:26:00.598Z,100273.69
2018-05-08T23:28:26.564Z,100270.56
2018-05-08T23:30:52.547Z,100268.30
2018-05-08T23:33:18.512Z,100269.40
2018-05-08T23:35:44.454Z,100263.86
2018-05-08T23:38:10.405Z,100265.27
2018-05-08T23:40:36.386Z,100259.54
2018-05-08T23:43:02.341Z,100259.29
2018-05-08T23:45:28.314Z,100247.98
2018-05-08T23:47:54.264Z,100256.39
2018-05-08T23:50:20.220Z,100248.54
2018-05-08T23:52:46.194Z,100248.29
2018-05-08T23:55:12.173Z,100244.22
2018-05-08T23:57:38.180Z,100245.48
